Time;durP1;ratioP1;P1;durP2;ratioP2;P2;SDS_P1;SDS_P2;PMS_P1;PMS_P2;Temp;Humidity;BMP_temperature;BMP_pressure;BME280_temperature;BME280_humidity;BME280_pressure;Samples;Min_cycle;Max_cycle;Signal;HPM_P1;HPM_P2
2020/12/28 00:00:23;;;;;;;13.15;7.80;;;2.60;94.30;;;;;;5046526;28;20384;-73
2020/12/28 00:02:49;;;;;;;14.13;7.25;;;2.50;94.30;;;;;;5049338;28;20029;-71
2020/12/28 00:05:14;;;;;;;13.43;6.45;;;2.50;94.30;;;;;;5062092;28;20033;-71
2020/12/28 00:07:40;;;;;;;12.82;6.35;;;2.50;94.30;;;;;;5057499;28;20418;-71
2020/12/28 00:10:09;;;;;;;12.43;6.80;;;2.50;94.40;;;;;;5040503;28;20029;-70
2020/12/28 00:12:46;;;;;;;14.73;6.85;;;2.50;94.30;;;;;;5060133;28;20044;-70
2020/12/28 00:15:17;;;;;;;11.68;6.38;;;2.50;94.30;;;;;;5040973;28;20029;-69
2020/12/28 00:17:47;;;;;;;13.45;7.60;;;2.50;94.30;;;;;;5038369;28;20155;-69
2020/12/28 00:20:13;;;;;;;11.30;6.93;;;2.40;94.30;;;;;;5043925;28;20025;-69
2020/12/28 00:22:39;;;;;;;13.77;6.70;;;2.40;94.30;;;;;;5043183;28;20044;-70
2020/12/28 00:25:05;;;;;;;12.02;6.82;;;2.40;94.30;;;;;;5058024;28;20059;-69
2020/12/28 00:27:31;;;;;;;12.98;7.57;;;2.40;94.30;;;;;;5045211;28;20084;-69
2020/12/28 00:29:56;;;;;;;14.45;7.72;;;2.40;94.30;;;;;;5046727;28;20053;-69
2020/12/28 00:32:22;;;;;;;12.38;6.40;;;2.40;94.30;;;;;;5041388;28;20380;-69
2020/12/28 00:34:48;;;;;;;11.95;5.75;;;2.40;94.30;;;;;;5047194;28;20480;-69
2020/12/28 00:37:13;;;;;;;14.00;6.47;;;2.40;94.30;;;;;;5042644;28;20033;-69
2020/12/28 00:39:39;;;;;;;12.63;6.57;;;2.40;94.40;;;;;;5064326;28;21351;-70
2020/12/28 00:42:05;;;;;;;12.90;5.85;;;2.40;94.30;;;;;;5046378;28;20025;-70
2020/12/28 00:44:30;;;;;;;12.57;6.00;;;2.40;94.30;;;;;;5044538;28;20067;-69
2020/12/28 00:46:56;;;;;;;14.02;5.72;;;2.40;94.20;;;;;;5044794;28;20157;-71
2020/12/28 00:49:22;;;;;;;15.38;6.15;;;2.40;94.20;;;;;;5049199;28;20040;-70
2020/12/28 00:51:47;;;;;;;14.70;5.68;;;2.40;94.30;;;;;;5049182;28;20167;-71
2020/12/28 00:54:13;;;;;;;12.93;6.30;;;2.40;94.30;;;;;;5044570;28;20447;-70
2020/12/28 00:56:39;;;;;;;11.80;6.35;;;2.40;94.30;;;;;;5047930;28;20048;-71
2020/12/28 00:59:04;;;;;;;11.80;6.38;;;2.40;94.20;;;;;;5044662;28;20025;-70
2020/12/28 01:01:30;;;;;;;11.80;5.55;;;2.40;94.30;;;;;;5042878;28;20041;-70
2020/12/28 01:03:56;;;;;;;11.95;6.22;;;2.40;94.30;;;;;;5045916;28;20114;-71
2020/12/28 01:06:21;;;;;;;11.68;5.95;;;2.40;94.20;;;;;;5043365;28;20428;-69
2020/12/28 01:08:47;;;;;;;13.48;5.55;;;2.40;94.20;;;;;;5045647;28;20043;-71
2020/12/28 01:11:18;;;;;;;11.50;5.43;;;2.40;94.10;;;;;;5043429;28;20057;-70
2020/12/28 01:13:44;;;;;;;11.35;5.60;;;2.40;94.10;;;;;;5043507;28;20391;-69
2020/12/28 01:16:12;;;;;;;10.32;5.13;;;2.40;94.10;;;;;;5042966;28;20055;-71
2020/12/28 01:18:40;;;;;;;9.30;4.95;;;2.40;94.20;;;;;;5041629;28;20605;-70
2020/12/28 01:21:05;;;;;;;11.35;5.13;;;2.40;94.20;;;;;;5044883;28;20036;-70
2020/12/28 01:23:31;;;;;;;10.77;5.22;;;2.50;94.20;;;;;;5042760;28;20044;-69
2020/12/28 01:25:57;;;;;;;12.93;5.38;;;2.50;94.30;;;;;;5047895;28;20128;-71
2020/12/28 01:28:22;;;;;;;9.35;5.10;;;2.60;94.30;;;;;;5044511;28;20029;-71
2020/12/28 01:30:48;;;;;;;10.27;5.25;;;2.60;94.20;;;;;;5044038;28;20035;-74
2020/12/28 01:33:13;;;;;;;12.05;5.65;;;2.60;94.20;;;;;;5047567;28;20037;-70
2020/12/28 01:35:39;;;;;;;10.50;5.55;;;2.60;94.20;;;;;;5045847;28;20131;-71
2020/12/28 01:38:05;;;;;;;9.00;5.07;;;2.60;94.10;;;;;;5043115;28;20083;-70
2020/12/28 01:40:31;;;;;;;11.35;5.10;;;2.60;94.10;;;;;;5047795;28;20045;-72
2020/12/28 01:42:57;;;;;;;11.55;5.25;;;2.60;94.00;;;;;;5045032;28;20084;-71
2020/12/28 01:45:23;;;;;;;13.32;5.38;;;2.60;94.00;;;;;;5045367;28;20541;-70
2020/12/28 01:47:48;;;;;;;10.75;5.22;;;2.60;94.00;;;;;;5047105;28;20383;-70
2020/12/28 01:50:15;;;;;;;14.32;5.03;;;2.60;93.90;;;;;;5046732;28;20132;-70
2020/12/28 01:52:41;;;;;;;7.53;4.75;;;2.60;93.90;;;;;;5047054;28;20092;-75
2020/12/28 01:55:08;;;;;;;11.68;5.13;;;2.60;93.90;;;;;;5047389;28;20037;-70
2020/12/28 01:57:34;;;;;;;12.30;4.65;;;2.60;94.00;;;;;;5042516;28;20041;-70
2020/12/28 02:00:00;;;;;;;12.50;5.60;;;2.60;94.00;;;;;;5044639;28;20490;-70
2020/12/28 02:02:27;;;;;;;9.52;4.90;;;2.60;94.00;;;;;;5040582;28;20029;-74
2020/12/28 02:04:52;;;;;;;11.23;5.43;;;2.70;94.10;;;;;;5055028;28;20031;-70
2020/12/28 02:07:20;;;;;;;9.43;4.70;;;2.70;94.10;;;;;;5057055;28;20498;-72
2020/12/28 02:09:47;;;;;;;10.82;4.60;;;2.80;94.00;;;;;;5043144;28;20488;-70
2020/12/28 02:12:13;;;;;;;12.48;5.15;;;2.90;94.00;;;;;;5038269;28;20037;-70
2020/12/28 02:14:38;;;;;;;11.73;4.90;;;2.90;94.00;;;;;;5049135;28;20033;-71
2020/12/28 02:17:04;;;;;;;11.52;5.20;;;2.90;93.90;;;;;;5042686;28;20091;-70
2020/12/28 02:19:30;;;;;;;11.02;5.10;;;2.90;93.80;;;;;;5042094;28;20037;-70
2020/12/28 02:21:56;;;;;;;13.88;5.60;;;3.00;93.80;;;;;;5045863;28;20029;-71
2020/12/28 02:24:22;;;;;;;10.40;5.57;;;3.00;93.60;;;;;;5049459;28;20036;-71
2020/12/28 02:26:48;;;;;;;10.13;5.40;;;2.90;93.50;;;;;;5044648;28;20452;-70
2020/12/28 02:29:13;;;;;;;15.55;6.60;;;2.90;93.50;;;;;;5049419;28;20590;-70
2020/12/28 02:31:39;;;;;;;15.68;7.30;;;3.00;93.60;;;;;;5048986;28;20036;-71
2020/12/28 02:34:05;;;;;;;20.50;10.05;;;2.90;93.60;;;;;;5066998;28;20495;-71
2020/12/28 02:36:30;;;;;;;20.05;10.90;;;3.00;93.80;;;;;;5046823;28;20380;-73
2020/12/28 02:38:56;;;;;;;29.08;15.25;;;2.90;93.80;;;;;;5051675;28;20135;-71
2020/12/28 02:41:25;;;;;;;25.20;14.07;;;3.00;93.80;;;;;;5036603;28;20037;-71
2020/12/28 02:43:51;;;;;;;27.00;16.95;;;3.00;93.80;;;;;;5039183;28;20884;-70
2020/12/28 02:46:18;;;;;;;32.92;18.13;;;3.00;93.80;;;;;;5041106;28;20041;-70
2020/12/28 02:48:44;;;;;;;27.80;19.23;;;3.00;93.80;;;;;;5045774;28;20555;-71
2020/12/28 02:51:13;;;;;;;31.65;19.95;;;3.10;93.70;;;;;;5051309;28;20471;-71
2020/12/28 02:53:39;;;;;;;30.27;20.23;;;3.00;93.60;;;;;;5040429;28;20461;-70
2020/12/28 02:56:05;;;;;;;31.83;20.70;;;3.00;93.60;;;;;;5043611;28;20087;-69
2020/12/28 02:58:30;;;;;;;28.98;20.25;;;3.00;93.60;;;;;;5043777;28;21405;-70
2020/12/28 03:00:56;;;;;;;30.60;21.25;;;3.00;93.50;;;;;;5045411;28;20036;-70
2020/12/28 03:03:22;;;;;;;33.90;21.08;;;2.90;93.50;;;;;;5043151;28;20560;-70
2020/12/28 03:05:47;;;;;;;32.60;21.52;;;2.90;93.60;;;;;;5047803;28;20528;-69
2020/12/28 03:08:13;;;;;;;30.35;20.42;;;2.90;93.70;;;;;;5048497;28;20036;-70
2020/12/28 03:10:38;;;;;;;27.70;20.17;;;2.90;93.70;;;;;;5038695;28;20029;-73
2020/12/28 03:13:04;;;;;;;33.78;20.15;;;2.80;93.80;;;;;;5051337;28;20025;-70
2020/12/28 03:15:30;;;;;;;29.63;20.13;;;2.80;93.80;;;;;;5049590;28;20119;-71
2020/12/28 03:17:55;;;;;;;32.63;19.95;;;2.80;93.80;;;;;;5060828;28;20511;-70
2020/12/28 03:20:21;;;;;;;32.70;20.88;;;2.90;93.90;;;;;;5047508;28;20112;-70
2020/12/28 03:22:46;;;;;;;27.52;19.52;;;2.90;93.80;;;;;;5060476;28;20063;-70
2020/12/28 03:25:12;;;;;;;33.55;20.40;;;2.90;93.90;;;;;;5063497;28;20507;-70
2020/12/28 03:27:38;;;;;;;31.10;20.55;;;2.90;93.90;;;;;;5054351;28;20040;-71
2020/12/28 03:30:03;;;;;;;31.00;19.70;;;2.80;93.90;;;;;;5041999;28;20040;-71
2020/12/28 03:32:29;;;;;;;28.33;18.20;;;2.80;93.90;;;;;;5044881;28;20049;-70
2020/12/28 03:34:55;;;;;;;27.98;19.08;;;2.80;93.90;;;;;;5043469;28;20044;-70
2020/12/28 03:37:20;;;;;;;29.40;18.30;;;2.80;93.90;;;;;;5047692;28;20115;-71
2020/12/28 03:39:46;;;;;;;29.88;18.10;;;2.80;93.90;;;;;;5050044;28;20067;-73
2020/12/28 03:42:11;;;;;;;28.67;18.33;;;2.80;93.80;;;;;;5038082;28;20033;-70
2020/12/28 03:44:37;;;;;;;23.95;17.02;;;2.80;93.90;;;;;;5037374;28;20072;-70
2020/12/28 03:47:03;;;;;;;25.85;16.40;;;2.80;93.90;;;;;;5047166;28;20067;-73
2020/12/28 03:49:28;;;;;;;26.42;16.27;;;2.80;93.90;;;;;;5040493;28;20041;-71
2020/12/28 03:51:54;;;;;;;25.08;15.93;;;2.80;93.90;;;;;;5055068;28;20174;-70
2020/12/28 03:54:19;;;;;;;24.35;15.20;;;2.70;93.80;;;;;;5062033;28;20048;-70
2020/12/28 03:56:45;;;;;;;23.20;13.98;;;2.70;93.90;;;;;;5066500;28;20032;-71
2020/12/28 03:59:11;;;;;;;26.50;13.23;;;2.70;93.90;;;;;;5063288;28;20033;-70
2020/12/28 04:01:36;;;;;;;19.77;12.13;;;2.80;94.00;;;;;;5043393;28;20037;-70
2020/12/28 04:04:02;;;;;;;23.48;13.52;;;2.70;93.90;;;;;;5046590;28;20502;-73
2020/12/28 04:06:28;;;;;;;22.42;13.30;;;2.70;93.90;;;;;;5044903;28;20043;-70
2020/12/28 04:08:53;;;;;;;22.25;11.93;;;2.70;93.90;;;;;;5052197;28;20067;-70
2020/12/28 04:11:19;;;;;;;18.73;11.48;;;2.70;93.90;;;;;;5050692;28;20056;-70
2020/12/28 04:13:45;;;;;;;21.48;11.77;;;2.70;94.00;;;;;;5048095;28;20528;-70
2020/12/28 04:16:13;;;;;;;17.42;11.00;;;2.70;93.90;;;;;;5052681;28;20079;-71
2020/12/28 04:18:39;;;;;;;20.40;10.70;;;2.70;94.00;;;;;;5055362;28;20665;-70
2020/12/28 04:21:04;;;;;;;22.90;10.30;;;2.70;94.00;;;;;;5067012;28;20455;-70
2020/12/28 04:23:30;;;;;;;20.92;10.15;;;2.70;94.00;;;;;;5056548;28;20044;-70
2020/12/28 04:25:55;;;;;;;18.85;10.38;;;2.70;94.10;;;;;;5058005;28;20033;-70
2020/12/28 04:28:21;;;;;;;19.00;10.70;;;2.70;94.10;;;;;;5050904;28;20380;-70
2020/12/28 04:30:47;;;;;;;19.65;9.10;;;2.70;94.10;;;;;;5046448;28;20033;-70
2020/12/28 04:33:12;;;;;;;17.35;10.02;;;2.70;94.10;;;;;;5049825;28;20033;-71
2020/12/28 04:35:38;;;;;;;18.80;9.20;;;2.70;94.00;;;;;;5072904;28;20072;-70
2020/12/28 04:38:04;;;;;;;16.75;8.40;;;2.70;94.00;;;;;;5070413;28;20159;-72
2020/12/28 04:40:30;;;;;;;19.50;9.38;;;2.70;94.00;;;;;;5067495;28;20037;-70
2020/12/28 04:42:56;;;;;;;19.00;8.45;;;2.80;94.00;;;;;;5049210;28;20029;-70
2020/12/28 04:45:22;;;;;;;24.42;9.20;;;2.70;94.00;;;;;;5042113;28;20037;-71
2020/12/28 04:47:48;;;;;;;16.88;8.48;;;2.70;93.90;;;;;;5048446;28;20045;-69
2020/12/28 04:50:14;;;;;;;19.00;9.20;;;2.80;94.00;;;;;;5049478;28;20032;-69
2020/12/28 04:52:40;;;;;;;21.85;9.13;;;2.80;94.00;;;;;;5048254;28;20044;-71
2020/12/28 04:55:06;;;;;;;20.30;8.45;;;2.80;94.00;;;;;;5041568;28;20037;-71
2020/12/28 04:57:31;;;;;;;16.33;8.68;;;2.80;94.00;;;;;;5056721;28;20074;-69
2020/12/28 04:59:57;;;;;;;23.42;9.52;;;2.90;94.00;;;;;;5061637;28;20442;-69
2020/12/28 05:02:26;;;;;;;19.52;8.43;;;2.90;93.90;;;;;;5044055;28;20044;-69
2020/12/28 05:04:51;;;;;;;21.33;8.93;;;2.90;93.80;;;;;;5085469;28;20028;-69
2020/12/28 05:07:17;;;;;;;19.77;8.60;;;2.80;93.80;;;;;;5059726;28;20040;-69
2020/12/28 05:09:43;;;;;;;19.42;9.25;;;2.80;93.80;;;;;;5062267;28;20036;-70
2020/12/28 05:12:09;;;;;;;17.88;8.90;;;2.90;93.80;;;;;;5061947;28;20037;-69
2020/12/28 05:14:35;;;;;;;20.60;9.57;;;2.80;93.80;;;;;;5083245;28;20396;-69
2020/12/28 05:17:06;;;;;;;22.23;9.73;;;2.80;93.80;;;;;;5064992;28;20059;-69
2020/12/28 05:19:35;;;;;;;17.67;11.57;;;2.80;93.80;;;;;;5064642;28;20385;-70
2020/12/28 05:22:00;;;;;;;28.33;12.32;;;2.90;93.80;;;;;;5066515;28;20033;-73
2020/12/28 05:24:26;;;;;;;21.20;11.50;;;2.90;93.90;;;;;;5065686;28;20044;-69
2020/12/28 05:26:52;;;;;;;24.80;12.25;;;2.90;93.90;;;;;;5063940;28;20041;-70
2020/12/28 05:29:20;;;;;;;23.70;12.77;;;3.00;93.90;;;;;;5067245;28;20079;-74
2020/12/28 05:31:47;;;;;;;20.25;13.65;;;3.10;93.90;;;;;;5065495;28;20044;-70
2020/12/28 05:34:16;;;;;;;24.10;13.57;;;3.20;93.80;;;;;;5068312;28;20028;-72
2020/12/28 05:36:44;;;;;;;23.60;13.30;;;3.20;93.60;;;;;;5069355;28;20108;-69
2020/12/28 05:39:14;;;;;;;26.73;14.30;;;3.30;93.50;;;;;;5067200;28;20099;-71
2020/12/28 05:41:40;;;;;;;25.10;14.38;;;3.30;93.30;;;;;;5066894;28;20032;-69
2020/12/28 05:44:12;;;;;;;28.92;14.73;;;3.30;93.20;;;;;;5059068;28;20375;-70
2020/12/28 05:46:37;;;;;;;27.48;15.35;;;3.30;93.10;;;;;;5065868;28;20503;-74
2020/12/28 05:49:07;;;;;;;21.48;13.85;;;3.30;93.10;;;;;;5063054;28;20062;-69
2020/12/28 05:51:35;;;;;;;27.35;14.68;;;3.30;93.10;;;;;;5066168;28;20041;-69
2020/12/28 05:54:09;;;;;;;24.60;14.20;;;3.40;93.10;;;;;;5063428;28;20039;-70
2020/12/28 05:56:40;;;;;;;22.80;13.87;;;3.30;93.10;;;;;;5067147;28;20044;-69
2020/12/28 05:59:06;;;;;;;22.02;13.48;;;3.40;93.10;;;;;;5064120;28;20055;-69
2020/12/28 06:01:35;;;;;;;26.92;14.35;;;3.40;93.00;;;;;;5062045;28;20044;-69
2020/12/28 06:04:02;;;;;;;23.80;13.63;;;3.40;93.00;;;;;;5062492;28;20036;-70
2020/12/28 06:06:28;;;;;;;23.60;13.07;;;3.40;92.90;;;;;;5067569;28;20131;-69
2020/12/28 06:08:54;;;;;;;24.40;13.43;;;3.40;92.90;;;;;;5064947;28;20036;-69
2020/12/28 06:11:20;;;;;;;24.05;13.63;;;3.40;93.00;;;;;;5062199;28;20039;-69
2020/12/28 06:13:45;;;;;;;21.02;12.95;;;3.40;92.90;;;;;;5061872;28;20052;-70
2020/12/28 06:16:23;;;;;;;25.75;14.13;;;3.50;92.90;;;;;;5065888;28;20474;-70
2020/12/28 06:18:56;;;;;;;20.90;13.70;;;3.50;92.90;;;;;;5059221;28;20390;-69
2020/12/28 06:21:22;;;;;;;25.38;14.20;;;3.50;92.90;;;;;;5066215;28;22204;-69
2020/12/28 06:23:49;;;;;;;25.85;13.27;;;3.50;92.90;;;;;;5064532;28;20070;-69
2020/12/28 06:26:21;;;;;;;22.65;13.65;;;3.50;92.80;;;;;;5066080;28;20032;-69
2020/12/28 06:28:47;;;;;;;20.30;13.07;;;3.60;92.90;;;;;;5072640;28;20464;-69
2020/12/28 06:31:13;;;;;;;22.90;13.27;;;3.60;92.80;;;;;;5067202;28;20032;-71
2020/12/28 06:33:51;;;;;;;22.75;12.82;;;3.60;92.80;;;;;;5066937;28;20654;-69
2020/12/28 06:36:17;;;;;;;19.77;11.57;;;3.60;92.80;;;;;;5064079;28;20111;-69
2020/12/28 06:38:54;;;;;;;21.35;11.40;;;3.60;92.80;;;;;;5056675;28;20063;-69
2020/12/28 06:41:27;;;;;;;20.48;10.77;;;3.70;92.80;;;;;;5059751;28;20105;-69
2020/12/28 06:43:59;;;;;;;21.58;11.40;;;3.70;92.70;;;;;;5063466;28;20380;-69
2020/12/28 06:46:25;;;;;;;23.45;11.65;;;3.70;92.70;;;;;;5066140;28;20063;-69
2020/12/28 06:48:51;;;;;;;17.30;10.15;;;3.70;92.60;;;;;;5061097;28;20468;-69
2020/12/28 06:51:16;;;;;;;20.90;10.73;;;3.70;92.60;;;;;;5063270;28;20082;-69
2020/12/28 06:53:43;;;;;;;18.45;10.52;;;3.70;92.50;;;;;;5063053;28;20033;-69
2020/12/28 06:56:11;;;;;;;20.02;10.38;;;3.80;92.50;;;;;;5061950;28;20029;-69
2020/12/28 06:58:38;;;;;;;29.30;10.75;;;3.80;92.50;;;;;;5058128;28;20483;-69
2020/12/28 07:01:05;;;;;;;19.10;10.25;;;3.80;92.40;;;;;;5064186;28;20135;-70
2020/12/28 07:03:31;;;;;;;18.40;10.18;;;3.80;92.40;;;;;;5064277;28;20396;-70
2020/12/28 07:05:58;;;;;;;19.33;10.07;;;3.80;92.40;;;;;;5065871;28;20025;-69
2020/12/28 07:08:25;;;;;;;19.90;10.10;;;3.90;92.30;;;;;;5059704;28;20040;-69
2020/12/28 07:11:04;;;;;;;17.98;10.85;;;3.90;92.30;;;;;;5064213;28;20091;-71
2020/12/28 07:13:33;;;;;;;24.02;10.60;;;3.90;92.20;;;;;;5062718;28;20135;-69
2020/12/28 07:16:07;;;;;;;20.00;11.75;;;3.90;92.20;;;;;;5061644;28;20386;-71
2020/12/28 07:18:34;;;;;;;20.23;10.88;;;3.90;92.10;;;;;;5063297;28;20127;-69
2020/12/28 07:21:01;;;;;;;26.08;11.15;;;3.90;92.20;;;;;;5067076;28;20086;-69
2020/12/28 07:23:28;;;;;;;17.08;10.40;;;3.90;92.20;;;;;;5061581;28;20395;-70
2020/12/28 07:26:07;;;;;;;21.83;10.88;;;3.90;92.20;;;;;;5062849;28;20029;-70
2020/12/28 07:28:34;;;;;;;21.02;10.82;;;4.00;92.10;;;;;;5065448;28;20071;-70
2020/12/28 07:31:01;;;;;;;22.27;11.63;;;3.90;92.00;;;;;;5061237;28;20041;-69
2020/12/28 07:33:27;;;;;;;19.95;11.45;;;4.00;92.00;;;;;;5069585;28;20032;-70
2020/12/28 07:36:13;;;;;;;18.83;11.50;;;4.00;92.00;;;;;;5070129;28;20452;-69
2020/12/28 07:38:41;;;;;;;20.67;10.73;;;4.00;92.00;;;;;;5066329;28;20040;-72
2020/12/28 07:41:07;;;;;;;20.42;10.70;;;4.00;92.00;;;;;;5068620;28;20098;-71
2020/12/28 07:43:33;;;;;;;24.85;10.93;;;4.00;92.00;;;;;;5063814;28;20041;-69
2020/12/28 07:46:19;;;;;;;17.77;10.85;;;4.00;92.00;;;;;;5065894;28;20101;-71
2020/12/28 07:48:46;;;;;;;21.88;9.40;;;4.00;92.00;;;;;;5067065;28;20387;-69
2020/12/28 07:51:18;;;;;;;19.95;10.35;;;4.00;91.90;;;;;;5063580;28;20521;-69
2020/12/28 07:53:49;;;;;;;20.65;9.65;;;4.00;91.90;;;;;;5066883;28;20119;-70
2020/12/28 07:56:45;;;;;;;20.10;10.30;;;4.10;91.90;;;;;;5070860;28;20048;-70
2020/12/28 07:59:42;;;;;;;21.58;9.15;;;4.10;91.90;;;;;;5066140;28;20496;-71
2020/12/28 08:02:40;;;;;;;16.70;8.20;;;4.10;91.90;;;;;;5063405;28;20471;-74
2020/12/28 08:05:08;;;;;;;15.98;8.00;;;4.10;91.70;;;;;;5062273;28;20405;-73
2020/12/28 08:07:35;;;;;;;16.85;7.93;;;4.10;91.70;;;;;;5061777;28;20037;-70
2020/12/28 08:10:05;;;;;;;15.60;8.48;;;4.10;91.60;;;;;;5064404;28;20085;-71
2020/12/28 08:12:31;;;;;;;16.73;7.47;;;4.10;91.60;;;;;;5061245;28;21453;-69
2020/12/28 08:14:57;;;;;;;16.17;7.45;;;4.10;91.50;;;;;;5063253;28;20033;-70
2020/12/28 08:17:26;;;;;;;12.65;6.72;;;4.20;91.40;;;;;;5065279;28;20527;-70
2020/12/28 08:20:03;;;;;;;20.80;8.48;;;4.20;91.40;;;;;;5059538;28;20394;-71
2020/12/28 08:22:29;;;;;;;17.80;7.15;;;4.20;91.40;;;;;;5059344;28;20039;-70
2020/12/28 08:25:03;;;;;;;20.33;7.38;;;4.20;91.30;;;;;;5062859;28;20036;-70
2020/12/28 08:27:30;;;;;;;17.98;6.32;;;4.20;91.30;;;;;;5063157;28;20044;-70
2020/12/28 08:29:56;;;;;;;17.83;8.05;;;4.20;91.10;;;;;;5062675;28;20104;-71
2020/12/28 08:32:26;;;;;;;15.02;6.68;;;4.20;91.00;;;;;;5061675;28;20033;-71
2020/12/28 08:34:57;;;;;;;16.77;7.22;;;4.20;90.80;;;;;;5065523;28;20040;-75
2020/12/28 08:37:23;;;;;;;15.75;5.25;;;4.30;90.80;;;;;;5060206;28;20120;-70
2020/12/28 08:39:48;;;;;;;13.77;5.63;;;4.30;90.60;;;;;;5065269;28;20497;-72
2020/12/28 08:42:24;;;;;;;16.15;5.40;;;4.30;90.60;;;;;;5065370;28;20762;-70
2020/12/28 08:44:50;;;;;;;13.30;5.65;;;4.30;90.50;;;;;;5062970;28;20119;-71
2020/12/28 08:47:15;;;;;;;18.65;5.45;;;4.40;90.50;;;;;;5061997;28;20116;-69
2020/12/28 08:49:42;;;;;;;16.60;5.30;;;4.40;90.50;;;;;;5047056;28;20433;-70
2020/12/28 08:52:13;;;;;;;16.60;5.47;;;4.40;90.50;;;;;;5064764;28;20044;-71
2020/12/28 08:54:39;;;;;;;16.98;5.78;;;4.40;90.50;;;;;;5062411;28;20046;-73
2020/12/28 08:57:05;;;;;;;13.00;5.22;;;4.50;90.50;;;;;;5052967;28;20040;-73
2020/12/28 08:59:31;;;;;;;14.77;5.38;;;4.50;90.60;;;;;;5062453;28;20041;-71
2020/12/28 09:01:57;;;;;;;19.48;6.13;;;4.50;90.70;;;;;;5064732;28;20032;-70
2020/12/28 09:04:24;;;;;;;14.93;5.40;;;4.50;90.70;;;;;;5063877;28;20120;-70
2020/12/28 09:06:50;;;;;;;15.63;5.53;;;4.50;90.70;;;;;;5063558;28;20068;-71
2020/12/28 09:09:17;;;;;;;15.90;5.15;;;4.50;90.70;;;;;;5062587;28;20123;-70
2020/12/28 09:11:43;;;;;;;18.30;4.90;;;4.50;90.70;;;;;;5064965;28;20142;-71
2020/12/28 09:14:08;;;;;;;15.32;4.88;;;4.60;90.70;;;;;;5060350;28;20652;-73
2020/12/28 09:16:35;;;;;;;17.73;5.43;;;4.60;90.80;;;;;;5063610;28;20043;-70
2020/12/28 09:19:00;;;;;;;13.40;4.97;;;4.60;90.80;;;;;;5062788;28;20064;-74
2020/12/28 09:21:26;;;;;;;15.40;5.18;;;4.60;90.80;;;;;;5060274;28;20361;-70
2020/12/28 09:23:51;;;;;;;13.23;5.18;;;4.60;90.70;;;;;;5062867;28;20790;-72
2020/12/28 09:26:17;;;;;;;12.35;4.20;;;4.60;90.80;;;;;;5062037;28;20040;-73
2020/12/28 09:28:44;;;;;;;11.13;4.53;;;4.70;90.80;;;;;;5063505;28;20033;-74
2020/12/28 09:31:10;;;;;;;13.90;5.03;;;4.70;90.70;;;;;;5060277;28;20560;-70
2020/12/28 09:33:36;;;;;;;14.45;5.03;;;4.70;90.60;;;;;;5063149;28;20389;-70
2020/12/28 09:36:02;;;;;;;12.50;4.47;;;4.70;90.50;;;;;;5061275;28;20029;-71
2020/12/28 09:38:28;;;;;;;13.75;4.30;;;4.80;90.50;;;;;;5063274;28;20029;-72
2020/12/28 09:40:53;;;;;;;12.80;4.30;;;4.70;90.50;;;;;;5061201;28;20035;-71
2020/12/28 09:43:19;;;;;;;11.55;4.20;;;4.80;90.30;;;;;;5060606;28;20036;-71
2020/12/28 09:45:45;;;;;;;14.05;4.90;;;4.80;90.10;;;;;;5059488;28;20040;-71
2020/12/28 09:48:10;;;;;;;11.50;4.25;;;4.80;90.00;;;;;;5061671;28;20035;-70
2020/12/28 09:50:36;;;;;;;12.98;3.90;;;4.80;89.90;;;;;;5061105;28;20360;-71
2020/12/28 09:53:02;;;;;;;15.95;6.25;;;4.90;90.00;;;;;;5058312;28;20108;-70
2020/12/28 09:55:28;;;;;;;12.73;5.30;;;4.90;89.70;;;;;;5048031;28;20034;-72
2020/12/28 09:57:54;;;;;;;10.65;4.38;;;5.00;89.80;;;;;;5041183;28;20040;-72
2020/12/28 10:00:19;;;;;;;8.85;4.47;;;5.00;89.70;;;;;;5052551;28;20437;-73
2020/12/28 10:02:46;;;;;;;10.07;4.00;;;5.10;89.70;;;;;;5055797;28;20032;-71
2020/12/28 10:05:12;;;;;;;9.05;3.75;;;5.00;89.60;;;;;;5059303;28;20162;-72
2020/12/28 10:07:39;;;;;;;8.07;3.25;;;5.10;89.60;;;;;;5059700;28;20067;-72
2020/12/28 10:10:06;;;;;;;13.75;3.97;;;5.10;89.60;;;;;;5060622;28;20036;-70
2020/12/28 10:12:32;;;;;;;10.35;4.03;;;5.30;89.70;;;;;;5046594;28;20098;-69
2020/12/28 10:14:58;;;;;;;14.98;4.15;;;5.50;89.40;;;;;;5040585;28;20041;-69
2020/12/28 10:17:24;;;;;;;10.45;4.22;;;5.70;88.60;;;;;;5038728;28;20550;-70
2020/12/28 10:19:50;;;;;;;13.30;5.35;;;5.80;86.80;;;;;;5041985;28;20124;-71
2020/12/28 10:22:16;;;;;;;13.15;5.28;;;5.80;87.10;;;;;;5057301;28;20562;-73
2020/12/28 10:24:41;;;;;;;11.13;4.07;;;5.80;87.10;;;;;;5058427;28;20512;-68
2020/12/28 10:27:07;;;;;;;10.02;3.75;;;5.60;87.20;;;;;;5059924;28;20407;-68
2020/12/28 10:29:32;;;;;;;11.25;3.97;;;5.60;87.60;;;;;;5059749;28;20040;-67
2020/12/28 10:31:58;;;;;;;12.23;4.25;;;5.60;87.80;;;;;;5061128;28;20037;-67
2020/12/28 10:34:25;;;;;;;9.07;3.85;;;5.60;88.20;;;;;;5061332;28;20040;-68
2020/12/28 10:36:50;;;;;;;9.07;3.75;;;5.50;87.90;;;;;;5061641;28;20483;-70
2020/12/28 10:39:16;;;;;;;9.18;4.28;;;5.60;88.00;;;;;;5039865;28;20063;-69
2020/12/28 10:41:42;;;;;;;10.63;4.05;;;5.60;87.90;;;;;;5061746;28;20082;-71
2020/12/28 10:44:07;;;;;;;9.70;3.90;;;5.70;88.00;;;;;;5041709;28;20395;-71
2020/12/28 10:46:36;;;;;;;9.75;4.10;;;5.90;87.80;;;;;;5041503;28;20356;-68
2020/12/28 10:49:03;;;;;;;10.25;4.78;;;5.90;87.00;;;;;;5038570;28;20029;-68
2020/12/28 10:51:28;;;;;;;9.88;4.60;;;5.90;86.70;;;;;;5044058;28;20036;-68
2020/12/28 10:53:54;;;;;;;13.90;4.68;;;5.80;86.90;;;;;;5040569;28;20038;-68
2020/12/28 10:56:27;;;;;;;11.00;5.18;;;5.80;86.70;;;;;;5038682;28;20123;-67
2020/12/28 10:58:53;;;;;;;10.65;5.05;;;5.70;87.10;;;;;;5045476;28;20040;-69
2020/12/28 11:01:23;;;;;;;8.52;3.70;;;5.60;87.20;;;;;;5030631;28;20038;-67
2020/12/28 11:03:50;;;;;;;13.23;4.72;;;5.50;87.20;;;;;;5037420;28;20517;-67
2020/12/28 11:06:17;;;;;;;9.60;4.20;;;5.50;87.30;;;;;;5058830;28;20561;-68
2020/12/28 11:08:42;;;;;;;10.32;4.15;;;5.50;87.40;;;;;;5063691;28;20123;-67
2020/12/28 11:11:09;;;;;;;14.50;5.95;;;5.50;87.70;;;;;;5059628;28;20448;-68
2020/12/28 11:13:34;;;;;;;17.08;5.57;;;5.50;87.70;;;;;;5064234;28;20028;-67
2020/12/28 11:16:00;;;;;;;12.20;5.35;;;5.60;88.00;;;;;;5057974;28;20031;-68
2020/12/28 11:18:25;;;;;;;13.60;5.43;;;5.60;88.00;;;;;;5062395;28;20446;-70
2020/12/28 11:20:51;;;;;;;9.43;4.30;;;5.60;87.80;;;;;;5064166;28;20487;-67
2020/12/28 11:23:17;;;;;;;10.45;5.65;;;5.70;87.80;;;;;;5063972;28;20047;-68
2020/12/28 11:25:43;;;;;;;9.82;4.90;;;5.70;87.60;;;;;;5064480;28;20483;-70
2020/12/28 11:28:09;;;;;;;12.48;6.28;;;5.80;87.70;;;;;;5062735;28;20049;-68
2020/12/28 11:30:34;;;;;;;13.60;6.88;;;5.80;87.60;;;;;;5049430;28;20025;-69
2020/12/28 11:33:00;;;;;;;10.55;5.22;;;5.80;87.40;;;;;;5039573;28;20120;-68
2020/12/28 11:35:26;;;;;;;14.73;5.75;;;5.90;87.50;;;;;;5050638;28;20025;-67
2020/12/28 11:37:51;;;;;;;11.70;5.78;;;5.90;87.70;;;;;;5067909;28;20383;-69
2020/12/28 11:40:17;;;;;;;11.75;5.32;;;5.90;87.10;;;;;;5062133;28;20032;-69
2020/12/28 11:42:42;;;;;;;12.10;5.28;;;5.90;87.20;;;;;;5058938;28;20079;-67
2020/12/28 11:45:09;;;;;;;12.45;6.05;;;5.90;86.90;;;;;;5061495;28;20024;-68
2020/12/28 11:47:38;;;;;;;11.55;6.68;;;5.90;87.20;;;;;;5062132;28;20391;-67
2020/12/28 11:50:04;;;;;;;10.82;5.63;;;6.00;87.30;;;;;;5051082;28;20136;-69
2020/12/28 11:52:30;;;;;;;13.68;5.70;;;6.00;86.80;;;;;;5061077;28;20511;-70
2020/12/28 11:54:56;;;;;;;11.65;5.80;;;6.10;86.90;;;;;;5044784;28;20060;-68
2020/12/28 11:57:22;;;;;;;12.65;5.85;;;6.10;86.40;;;;;;5050526;28;20037;-68
2020/12/28 11:59:47;;;;;;;14.65;6.05;;;6.10;86.10;;;;;;5064567;28;20119;-67
2020/12/28 12:02:13;;;;;;;14.88;6.88;;;6.10;86.30;;;;;;5062682;28;20059;-68
2020/12/28 12:04:49;;;;;;;12.52;7.38;;;6.10;86.30;;;;;;5043618;28;20100;-70
2020/12/28 12:07:21;;;;;;;12.25;7.22;;;6.00;86.50;;;;;;5063674;28;20494;-72
2020/12/28 12:09:49;;;;;;;12.20;5.75;;;6.00;86.70;;;;;;5062627;28;20071;-68
2020/12/28 12:12:15;;;;;;;10.05;5.35;;;5.90;86.60;;;;;;5054342;28;20029;-68
2020/12/28 12:14:40;;;;;;;10.98;5.50;;;5.80;86.60;;;;;;5053652;28;20040;-68
2020/12/28 12:17:06;;;;;;;10.68;5.20;;;5.90;86.30;;;;;;5063201;28;20050;-68
2020/12/28 12:19:32;;;;;;;11.00;4.80;;;5.80;86.40;;;;;;5065103;28;20610;-69
2020/12/28 12:21:58;;;;;;;11.68;5.25;;;5.80;86.30;;;;;;5061334;28;20029;-67
2020/12/28 12:24:24;;;;;;;11.38;6.18;;;5.80;86.30;;;;;;5066691;28;20036;-66
2020/12/28 12:26:49;;;;;;;9.40;5.28;;;5.90;86.30;;;;;;5063535;28;20047;-69
2020/12/28 12:29:15;;;;;;;13.38;5.70;;;5.90;86.10;;;;;;5060749;28;20040;-68
2020/12/28 12:31:41;;;;;;;9.60;5.03;;;5.90;86.00;;;;;;5062782;28;20041;-68
2020/12/28 12:34:07;;;;;;;9.45;5.00;;;6.00;85.70;;;;;;5054584;28;20044;-67
2020/12/28 12:36:32;;;;;;;9.23;4.75;;;6.10;85.70;;;;;;5046181;28;21423;-67
2020/12/28 12:38:58;;;;;;;15.23;5.80;;;6.00;85.30;;;;;;5041785;28;20041;-68
2020/12/28 12:41:24;;;;;;;9.68;4.68;;;6.10;85.50;;;;;;5045458;28;20028;-69